createdAt,value
2018-07-08T00:02:56.494Z,6.60
2018-07-08T00:07:59.686Z,6.43
2018-07-08T00:13:02.892Z,5.60
2018-07-08T00:18:06.106Z,9.70
2018-07-08T00:23:09.241Z,6.07
2018-07-08T00:28:12.376Z,7.63
2018-07-08T00:33:15.520Z,8.87
2018-07-08T00:38:19.278Z,7.77
2018-07-08T00:43:22.384Z,5.57
2018-07-08T00:48:25.531Z,6.63
2018-07-08T00:53:28.731Z,7.73
2018-07-08T00:58:32.707Z,9.23
2018-07-08T01:03:35.895Z,7.43
2018-07-08T01:08:39.129Z,8.27
2018-07-08T01:13:42.170Z,5.73
2018-07-08T01:18:45.318Z,7.20
2018-07-08T01:23:48.397Z,11.00
2018-07-08T01:28:51.482Z,7.97
2018-07-08T01:33:54.645Z,7.80
2018-07-08T01:38:57.808Z,6.07
2018-07-08T01:44:00.957Z,7.63
2018-07-08T01:49:04.244Z,7.20
2018-07-08T01:54:07.408Z,6.43
2018-07-08T01:59:10.862Z,9.67
2018-07-08T02:04:14.051Z,7.90
2018-07-08T02:09:17.273Z,7.23
2018-07-08T02:14:21.471Z,9.03
2018-07-08T02:19:24.851Z,6.07
2018-07-08T02:24:28.864Z,11.07
2018-07-08T02:29:32.715Z,12.03
2018-07-08T02:34:35.956Z,11.40
2018-07-08T02:39:39.102Z,9.80
2018-07-08T02:44:42.576Z,6.63
2018-07-08T02:49:46.120Z,8.23
2018-07-08T02:54:49.222Z,9.57
2018-07-08T02:59:52.334Z,8.73
2018-07-08T03:04:55.481Z,5.57
2018-07-08T03:09:58.670Z,7.23
2018-07-08T03:15:01.838Z,12.07
2018-07-08T03:20:05.005Z,13.27
2018-07-08T03:25:08.093Z,8.10
2018-07-08T03:30:12.056Z,9.43
2018-07-08T03:35:15.163Z,8.73
2018-07-08T03:40:18.238Z,9.27
2018-07-08T03:45:21.356Z,5.50
2018-07-08T03:50:24.498Z,9.80
2018-07-08T03:55:27.944Z,8.83
2018-07-08T04:00:31.112Z,7.50
2018-07-08T04:05:34.889Z,6.50
2018-07-08T04:10:37.999Z,8.03
2018-07-08T04:15:41.206Z,9.43
2018-07-08T04:20:44.339Z,10.37
2018-07-08T04:25:47.466Z,9.47
2018-07-08T04:30:50.615Z,10.57
2018-07-08T04:35:53.754Z,8.13
2018-07-08T04:40:56.905Z,8.00
2018-07-08T04:46:00.152Z,10.87
2018-07-08T04:51:03.501Z,10.57
2018-07-08T04:56:06.810Z,11.23
2018-07-08T05:01:09.952Z,11.07
2018-07-08T05:06:13.161Z,6.93
2018-07-08T05:11:16.324Z,9.83
2018-07-08T05:16:19.614Z,6.60
2018-07-08T05:21:22.835Z,7.77
2018-07-08T05:26:26.010Z,7.83
2018-07-08T05:31:29.264Z,9.93
2018-07-08T05:36:33.512Z,7.57
2018-07-08T05:41:37.227Z,9.83
2018-07-08T05:46:40.443Z,9.10
2018-07-08T05:51:43.588Z,9.07
2018-07-08T05:56:46.722Z,10.33
2018-07-08T06:01:49.911Z,13.60
2018-07-08T06:06:53.032Z,8.10
2018-07-08T06:11:56.192Z,12.37
2018-07-08T06:16:59.531Z,9.67
2018-07-08T06:22:02.644Z,11.83
2018-07-08T06:27:05.833Z,8.97
2018-07-08T06:32:08.934Z,11.27
2018-07-08T06:37:12.038Z,7.90
2018-07-08T06:42:15.501Z,8.80
2018-07-08T06:47:18.758Z,9.70
2018-07-08T06:52:22.046Z,13.07
2018-07-08T06:57:25.262Z,13.03
2018-07-08T07:02:28.473Z,9.47
2018-07-08T07:07:31.627Z,11.77
2018-07-08T07:12:34.743Z,12.73
2018-07-08T07:17:37.939Z,10.77
2018-07-08T07:22:41.042Z,11.60
2018-07-08T07:27:44.193Z,17.47
2018-07-08T07:32:47.316Z,16.93
2018-07-08T07:37:50.510Z,12.57
2018-07-08T07:42:53.664Z,10.07
2018-07-08T07:47:58.454Z,16.13
2018-07-08T07:53:01.605Z,18.63
2018-07-08T07:58:04.778Z,15.80
2018-07-08T08:03:07.976Z,15.23
2018-07-08T08:08:11.159Z,11.80
2018-07-08T08:13:14.277Z,15.07
2018-07-08T08:18:17.403Z,15.30
2018-07-08T08:23:20.573Z,17.73
2018-07-08T08:28:23.707Z,14.40
2018-07-08T08:33:27.863Z,14.37
2018-07-08T08:38:31.135Z,17.53
2018-07-08T08:43:34.350Z,14.17
2018-07-08T08:48:38.535Z,11.90
2018-07-08T08:53:41.594Z,14.17
2018-07-08T08:58:44.751Z,15.03
2018-07-08T09:03:47.938Z,14.10
2018-07-08T09:08:51.040Z,13.97
2018-07-08T09:13:54.786Z,12.27
2018-07-08T09:18:57.994Z,9.80
2018-07-08T09:24:01.323Z,13.63
2018-07-08T09:29:04.506Z,11.77
2018-07-08T09:34:07.660Z,11.27
2018-07-08T09:39:10.890Z,12.03
2018-07-08T09:44:13.912Z,10.33
2018-07-08T09:49:17.076Z,11.27
2018-07-08T09:54:20.209Z,12.13
2018-07-08T10:05:11.213Z,8.93
2018-07-08T10:10:14.342Z,10.90
2018-07-08T10:15:17.619Z,11.17
2018-07-08T10:20:20.766Z,15.30
2018-07-08T10:25:23.977Z,7.90
2018-07-08T10:30:27.212Z,12.43
2018-07-08T10:35:41.706Z,11.33
2018-07-08T10:40:44.941Z,13.67
2018-07-08T10:45:48.066Z,11.80
2018-07-08T10:50:51.224Z,11.10
2018-07-08T10:55:54.537Z,12.60
2018-07-08T11:00:58.443Z,12.50
2018-07-08T11:06:01.838Z,14.30
2018-07-08T11:11:05.376Z,10.30
2018-07-08T11:16:08.605Z,12.03
2018-07-08T11:21:11.835Z,9.37
2018-07-08T11:26:14.949Z,12.60
2018-07-08T11:31:18.113Z,9.47
2018-07-08T11:36:21.295Z,11.30
2018-07-08T11:41:24.414Z,10.47
2018-07-08T11:46:27.682Z,8.60
2018-07-08T11:51:30.830Z,12.33
2018-07-08T11:56:34.036Z,9.37
2018-07-08T12:01:37.206Z,7.73
2018-07-08T12:06:40.295Z,8.47
2018-07-08T12:11:43.492Z,10.27
2018-07-08T12:16:46.690Z,10.43
2018-07-08T12:21:49.820Z,8.77
2018-07-08T12:26:52.973Z,10.00
2018-07-08T12:31:56.072Z,6.70
2018-07-08T12:36:59.289Z,8.80
2018-07-08T12:42:02.554Z,6.67
2018-07-08T12:47:05.705Z,7.37
2018-07-08T12:52:08.809Z,8.93
2018-07-08T12:57:11.964Z,9.07
2018-07-08T13:02:15.060Z,9.93
2018-07-08T13:07:18.206Z,7.50
2018-07-08T13:12:21.374Z,9.17
2018-07-08T13:17:25.601Z,7.37
2018-07-08T13:22:28.969Z,6.63
2018-07-08T13:27:32.306Z,7.87
2018-07-08T13:32:35.560Z,7.13
2018-07-08T13:37:38.736Z,6.80
2018-07-08T13:42:41.844Z,8.67
2018-07-08T13:47:45.011Z,8.77
2018-07-08T13:52:48.673Z,7.83
2018-07-08T13:57:51.839Z,5.97
2018-07-08T14:02:55.108Z,6.90
2018-07-08T14:08:00.097Z,7.50
2018-07-08T14:13:03.380Z,5.43
2018-07-08T14:18:06.570Z,6.73
2018-07-08T14:23:09.757Z,8.90
2018-07-08T14:28:13.569Z,7.27
2018-07-08T14:33:17.161Z,5.87
2018-07-08T14:38:20.383Z,5.47
2018-07-08T14:43:23.520Z,5.30
2018-07-08T14:48:28.063Z,6.03
2018-07-08T14:53:32.472Z,7.90
2018-07-08T14:58:35.863Z,6.63
2018-07-08T15:03:39.213Z,5.43
2018-07-08T15:08:42.472Z,5.70
2018-07-08T15:13:45.637Z,7.50
2018-07-08T15:18:49.563Z,6.13
2018-07-08T15:23:53.272Z,5.13
2018-07-08T15:28:56.585Z,4.80
2018-07-08T15:33:59.970Z,7.60
2018-07-08T15:39:04.562Z,7.10
2018-07-08T15:44:07.766Z,4.57
2018-07-08T15:49:12.071Z,6.30
2018-07-08T15:54:15.294Z,5.73
2018-07-08T15:59:18.906Z,7.13
2018-07-08T16:04:22.107Z,6.45
2018-07-08T16:09:25.284Z,6.40
2018-07-08T16:14:28.674Z,6.70
2018-07-08T16:19:31.951Z,7.10
2018-07-08T16:24:35.214Z,4.73
2018-07-08T16:29:38.434Z,7.50
2018-07-08T16:34:41.921Z,6.00
2018-07-08T16:39:45.141Z,4.87
2018-07-08T16:44:48.323Z,6.33
2018-07-08T16:49:51.539Z,5.53
2018-07-08T16:54:54.759Z,4.80
2018-07-08T16:59:58.127Z,4.77
2018-07-08T17:05:02.149Z,5.33
2018-07-08T17:10:05.624Z,4.67
2018-07-08T17:15:08.927Z,6.10
2018-07-08T17:20:12.103Z,7.30
2018-07-08T17:25:15.285Z,5.43
2018-07-08T17:30:18.403Z,5.73
2018-07-08T17:35:22.116Z,3.20
2018-07-08T17:40:25.330Z,4.10
2018-07-08T17:45:28.659Z,4.67
2018-07-08T17:50:31.935Z,6.57
2018-07-08T17:55:35.140Z,7.27
2018-07-08T18:00:38.312Z,4.37
2018-07-08T18:05:45.505Z,3.77
2018-07-08T18:10:49.327Z,5.07
2018-07-08T18:15:52.790Z,6.03
2018-07-08T18:20:56.111Z,3.77
2018-07-08T18:25:59.598Z,5.43
2018-07-08T18:31:02.917Z,3.53
2018-07-08T18:36:06.439Z,5.17
2018-07-08T18:41:09.682Z,7.87
2018-07-08T18:46:13.006Z,5.53
2018-07-08T18:51:16.693Z,5.90
2018-07-08T18:56:21.149Z,6.97
2018-07-08T19:01:24.343Z,5.93
2018-07-08T19:06:28.117Z,8.20
2018-07-08T19:11:34.016Z,7.03
2018-07-08T19:16:38.859Z,5.30
2018-07-08T19:21:50.174Z,5.07
2018-07-08T19:26:57.763Z,4.30
2018-07-08T19:32:02.618Z,6.30
2018-07-08T19:37:06.764Z,7.07
2018-07-08T19:42:11.259Z,4.27
2018-07-08T19:47:14.447Z,4.30
2018-07-08T19:52:18.225Z,4.83
2018-07-08T19:57:22.177Z,7.07
2018-07-08T20:02:25.789Z,5.47
2018-07-08T20:07:30.924Z,6.17
2018-07-08T20:12:34.304Z,3.93
2018-07-08T20:17:40.694Z,4.17
2018-07-08T20:22:45.225Z,3.93
2018-07-08T20:27:49.130Z,9.63
2018-07-08T20:32:53.176Z,5.37
2018-07-08T20:37:57.984Z,4.73
2018-07-08T20:43:01.611Z,5.47
2018-07-08T20:48:05.186Z,4.77
2018-07-08T20:53:08.526Z,5.33
2018-07-08T20:58:12.352Z,5.53
2018-07-08T21:03:16.865Z,5.77
2018-07-08T21:08:20.654Z,4.33
2018-07-08T21:13:23.869Z,5.07
2018-07-08T21:18:27.302Z,4.30
2018-07-08T21:23:32.532Z,5.43
2018-07-08T21:28:35.794Z,5.50
2018-07-08T21:33:38.983Z,5.07
2018-07-08T21:38:45.015Z,6.37
2018-07-08T21:43:48.151Z,4.37
